Heydar Aliyev — 9HFS7 — position and weather

sailwx.info

Track history (hours):
 
Tides and Currents Weather Stations Pressure Air Temp Water Temp Dewpoint Dewpoint Depression Visibility Wind Speed Wind Dir Waves Ship Positions

Heydar Aliyev

Last reported at 2017-Dec-17 01:00 UTC. Time now 2017-Dec-17 10:17 UTC.
Position N 44°24' E 014°06'.

Length 274 m; draft 9.3 m.

Type: Tanker. MMSI: 215213000.

Date/timePositionNaut miles runAvg speedWind from/ knotsBaromVisibWave heightAir tempDewpointWater temp
2017-Dec-17 01:00N 44°24' E 014°06'714.0
2017-Dec-17 00:30N 44°31' E 014°02'713.3
2017-Dec-17 00:00N 44°37' E 013°59'714.4
2017-Dec-16 23:31N 44°43' E 014°03'714.5
2017-Dec-16 23:00N 44°50' E 014°07'714.6
2017-Dec-16 22:30N 44°57' E 014°11'814.9
2017-Dec-16 21:58N 45°05' E 014°14'714.9
2017-Dec-16 21:31N 45°11' E 014°16'610.8
2017-Dec-16 20:57N 45°15' E 014°24'510.9
2017-Dec-16 20:30N 45°14' E 014°30'1 2.9
2017-Dec-16 20:00N 45°14' E 014°32'0 0.0
2017-Dec-15 19:51N 45°14' E 014°32'0 0.0
2017-Dec-15 18:15N 45°14' E 014°32'0 0.0
2017-Dec-15 17:51N 45°14' E 014°32'0 0.0
2017-Dec-15 16:33N 45°14' E 014°32'0 0.0
2017-Dec-15 16:27N 45°14' E 014°32'0 0.0
2017-Dec-15 15:39N 45°14' E 014°32'0 0.0
2017-Dec-15 15:09N 45°14' E 014°32'0 0.0
2017-Dec-15 14:39N 45°14' E 014°32'0 0.0
2017-Dec-15 14:03N 45°14' E 014°32'0 0.0
2017-Dec-15 13:57N 45°14' E 014°32'0 0.0
2017-Dec-15 13:27N 45°14' E 014°32'0 0.0
2017-Dec-15 12:57N 45°14' E 014°32'0 0.0
2017-Dec-15 12:15N 45°14' E 014°32'0 0.0
2017-Dec-15 11:15N 45°14' E 014°32'0 0.0
2017-Dec-15 10:57N 45°14' E 014°32'0 0.0
2017-Dec-15 10:03N 45°14' E 014°32'0 0.0
2017-Dec-15 10:00N 45°14' E 014°32'0 0.3
2017-Dec-15 09:30N 45°14' E 014°32'1 2.9
2017-Dec-15 09:01N 45°15' E 014°31'2 4.1
2017-Dec-15 08:30N 45°16' E 014°28'3 5.3
2017-Dec-15 08:00N 45°14' E 014°25'2 3.8
2017-Dec-15 07:29N 45°14' E 014°22'2 4.5
2017-Dec-15 07:00N 45°13' E 014°20'4 7.0
2017-Dec-15 06:30N 45°10' E 014°17'4 7.7
2017-Dec-15 06:01N 45°07' E 014°15'4 7.5
2017-Dec-15 05:30N 45°03' E 014°15'4 7.5
2017-Dec-15 05:00N 44°59' E 014°14'4 7.3
2017-Dec-15 04:31N 44°56' E 014°14'4 7.6
2017-Dec-15 04:00N 44°52' E 014°12'12 7.7
2017-Dec-15 02:30N 44°41' E 014°06'13 8.4
2017-Dec-15 01:00N 44°29' E 014°10'4 8.9
2017-Dec-15 00:31N 44°25' E 014°13'  
Track history (hours):
 
Tides and Currents Weather Stations Pressure Air Temp Water Temp Dewpoint Dewpoint Depression Visibility Wind Speed Wind Dir Waves Ship Positions

Heydar Aliyev

Last reported at 2017-Dec-17 01:00 UTC. Time now 2017-Dec-17 10:17 UTC.
Position N 44°24' E 014°06'.

Length 274 m; draft 9.3 m.

Type: Tanker. MMSI: 215213000.

Date/timePositionNaut miles runAvg speedWind from/ knotsBaromVisibWave heightAir tempDewpointWater temp
2017-Dec-17 01:00N 44°24' E 014°06'714.0
2017-Dec-17 00:30N 44°31' E 014°02'713.3
2017-Dec-17 00:00N 44°37' E 013°59'714.4
2017-Dec-16 23:31N 44°43' E 014°03'714.5
2017-Dec-16 23:00N 44°50' E 014°07'714.6
2017-Dec-16 22:30N 44°57' E 014°11'814.9
2017-Dec-16 21:58N 45°05' E 014°14'714.9
2017-Dec-16 21:31N 45°11' E 014°16'610.8
2017-Dec-16 20:57N 45°15' E 014°24'510.9
2017-Dec-16 20:30N 45°14' E 014°30'1 2.9
2017-Dec-16 20:00N 45°14' E 014°32'0 0.0
2017-Dec-15 19:51N 45°14' E 014°32'0 0.0
2017-Dec-15 18:15N 45°14' E 014°32'0 0.0
2017-Dec-15 17:51N 45°14' E 014°32'0 0.0
2017-Dec-15 16:33N 45°14' E 014°32'0 0.0
2017-Dec-15 16:27N 45°14' E 014°32'0 0.0
2017-Dec-15 15:39N 45°14' E 014°32'0 0.0
2017-Dec-15 15:09N 45°14' E 014°32'0 0.0
2017-Dec-15 14:39N 45°14' E 014°32'0 0.0
2017-Dec-15 14:03N 45°14' E 014°32'0 0.0
2017-Dec-15 13:57N 45°14' E 014°32'0 0.0
2017-Dec-15 13:27N 45°14' E 014°32'0 0.0
2017-Dec-15 12:57N 45°14' E 014°32'0 0.0
2017-Dec-15 12:15N 45°14' E 014°32'0 0.0
2017-Dec-15 11:15N 45°14' E 014°32'0 0.0
2017-Dec-15 10:57N 45°14' E 014°32'0 0.0
2017-Dec-15 10:03N 45°14' E 014°32'0 0.0
2017-Dec-15 10:00N 45°14' E 014°32'0 0.3
2017-Dec-15 09:30N 45°14' E 014°32'1 2.9
2017-Dec-15 09:01N 45°15' E 014°31'2 4.1
2017-Dec-15 08:30N 45°16' E 014°28'3 5.3
2017-Dec-15 08:00N 45°14' E 014°25'2 3.8
2017-Dec-15 07:29N 45°14' E 014°22'2 4.5
2017-Dec-15 07:00N 45°13' E 014°20'4 7.0
2017-Dec-15 06:30N 45°10' E 014°17'4 7.7
2017-Dec-15 06:01N 45°07' E 014°15'4 7.5
2017-Dec-15 05:30N 45°03' E 014°15'4 7.5
2017-Dec-15 05:00N 44°59' E 014°14'4 7.3
2017-Dec-15 04:31N 44°56' E 014°14'4 7.6
2017-Dec-15 04:00N 44°52' E 014°12'12 7.7
2017-Dec-15 02:30N 44°41' E 014°06'13 8.4
2017-Dec-15 01:00N 44°29' E 014°10'4 8.9
2017-Dec-15 00:31N 44°25' E 014°13'  

Dump ship's entire track history